createdAt,value
2022-09-18T00:00:22.983Z,99.99
2022-09-18T00:01:23.004Z,99.99
2022-09-18T00:02:23.371Z,99.99
2022-09-18T00:03:23.427Z,99.99
2022-09-18T00:04:23.177Z,99.99
2022-09-18T00:05:23.306Z,99.99
2022-09-18T00:06:23.151Z,99.99
2022-09-18T00:07:23.141Z,99.99
2022-09-18T00:08:22.860Z,99.99
2022-09-18T00:09:22.852Z,99.99
2022-09-18T00:10:23.089Z,99.99
2022-09-18T00:11:23.073Z,99.99
2022-09-18T00:12:23.058Z,99.99
2022-09-18T00:13:22.790Z,99.99
2022-09-18T00:14:22.894Z,99.99
2022-09-18T00:15:23.015Z,99.99
2022-09-18T00:16:23.072Z,99.99
2022-09-18T00:17:22.732Z,99.99
2022-09-18T00:18:22.715Z,99.99
2022-09-18T00:19:22.696Z,99.99
2022-09-18T00:20:22.943Z,99.99
2022-09-18T00:21:23.053Z,99.99
2022-09-18T00:22:22.911Z,99.99
2022-09-18T00:23:22.891Z,99.99
2022-09-18T00:24:22.892Z,99.99
2022-09-18T00:25:22.608Z,99.99
2022-09-18T00:26:22.862Z,99.99
2022-09-18T00:27:22.831Z,99.99
2022-09-18T00:28:22.566Z,99.99
2022-09-18T00:29:22.805Z,99.99
2022-09-18T00:30:22.653Z,99.99
2022-09-18T00:31:22.893Z,99.99
2022-09-18T00:32:22.506Z,99.99
2022-09-18T00:33:22.491Z,99.99
2022-09-18T00:34:22.737Z,99.99
2022-09-18T00:35:22.714Z,99.99
2022-09-18T00:36:22.702Z,99.99
2022-09-18T00:37:22.810Z,99.99
2022-09-18T00:38:22.673Z,99.99
2022-09-18T00:39:22.660Z,99.99
2022-09-18T00:40:22.815Z,99.99
2022-09-18T00:41:22.634Z,99.99
2022-09-18T00:42:22.357Z,99.99
2022-09-18T00:43:22.339Z,99.99
2022-09-18T00:44:22.582Z,99.99
2022-09-18T00:45:22.568Z,99.99
2022-09-18T00:46:22.538Z,99.99
2022-09-18T00:47:22.282Z,99.99
2022-09-18T00:48:22.523Z,99.99
2022-09-18T00:49:22.255Z,99.99
2022-09-18T00:50:22.495Z,99.99
2022-09-18T00:51:22.220Z,99.99
2022-09-18T00:52:22.479Z,99.99
2022-09-18T00:53:22.572Z,99.99
2022-09-18T00:54:22.446Z,99.99
2022-09-18T00:55:22.165Z,99.99
2022-09-18T00:56:22.421Z,99.99
2022-09-18T00:57:22.491Z,99.99
2022-09-18T00:58:22.383Z,99.99
2022-09-18T00:59:22.140Z,99.99
2022-09-18T01:00:22.373Z,99.99
2022-09-18T01:01:22.215Z,99.99
2022-09-18T01:02:22.628Z,99.99
2022-09-18T01:03:22.317Z,99.99
2022-09-18T01:04:22.283Z,99.99
2022-09-18T01:05:22.269Z,99.99
2022-09-18T01:06:21.995Z,99.99
2022-09-18T01:07:21.977Z,99.99
2022-09-18T01:08:21.967Z,99.99
2022-09-18T01:09:30.904Z,99.99
2022-09-18T01:10:22.191Z,99.99
2022-09-18T01:11:21.924Z,99.99
2022-09-18T01:12:22.159Z,99.99
2022-09-18T01:13:21.892Z,99.99
2022-09-18T01:14:21.881Z,99.99
2022-09-18T01:15:21.858Z,99.99
2022-09-18T01:16:21.941Z,99.99
2022-09-18T01:17:21.831Z,99.99
2022-09-18T01:18:22.198Z,99.99
2022-09-18T01:19:21.800Z,99.99
2022-09-18T01:20:22.037Z,99.99
2022-09-18T01:21:21.772Z,99.99
2022-09-18T01:22:21.758Z,99.99
2022-09-18T01:23:21.999Z,99.99
2022-09-18T01:24:21.726Z,99.99
2022-09-18T01:25:22.115Z,99.99
2022-09-18T01:26:21.956Z,99.99
2022-09-18T01:27:21.938Z,99.99
2022-09-18T01:28:21.915Z,99.99
2022-09-18T01:29:21.903Z,99.99
2022-09-18T01:30:21.887Z,99.99
2022-09-18T01:31:21.767Z,99.99
2022-09-18T01:32:21.606Z,99.99
2022-09-18T01:33:21.869Z,99.99
2022-09-18T01:34:21.692Z,99.99
2022-09-18T01:35:42.803Z,99.99
2022-09-18T01:36:21.802Z,99.99
2022-09-18T01:37:21.534Z,99.99
2022-09-18T01:38:21.771Z,99.99
2022-09-18T01:39:21.497Z,99.99
2022-09-18T01:40:21.917Z,99.99
2022-09-18T01:41:21.852Z,99.99
2022-09-18T01:42:21.709Z,99.99
2022-09-18T01:43:21.438Z,99.99
2022-09-18T01:44:21.678Z,99.99
2022-09-18T01:45:21.669Z,99.99
2022-09-18T01:46:21.825Z,99.99
2022-09-18T01:47:21.633Z,99.99
2022-09-18T01:48:21.651Z,99.99
2022-09-18T01:49:21.601Z,99.99
2022-09-18T01:50:21.716Z,99.99
2022-09-18T01:51:21.578Z,99.99
2022-09-18T01:52:21.555Z,99.99
2022-09-18T01:53:21.545Z,99.99
2022-09-18T01:54:21.272Z,99.99
2022-09-18T01:55:21.263Z,99.99
2022-09-18T01:56:21.494Z,99.99
2022-09-18T01:57:21.604Z,99.99
2022-09-18T01:58:21.229Z,99.99
2022-09-18T01:59:21.200Z,99.99
2022-09-18T02:00:21.182Z,99.99
2022-09-18T02:01:21.539Z,99.99
2022-09-18T02:02:21.389Z,99.99
2022-09-18T02:03:21.135Z,99.99
2022-09-18T02:04:21.125Z,99.99
2022-09-18T02:05:21.101Z,99.99
2022-09-18T02:06:21.218Z,99.99
2022-09-18T02:07:21.330Z,99.99
2022-09-18T02:08:21.064Z,99.99
2022-09-18T02:09:21.047Z,99.99
2022-09-18T02:10:21.283Z,99.99
2022-09-18T02:11:21.283Z,99.99
2022-09-18T02:12:20.998Z,99.99
2022-09-18T02:13:21.368Z,99.99
2022-09-18T02:14:21.226Z,99.99
2022-09-18T02:15:21.207Z,99.99
2022-09-18T02:16:21.165Z,99.99
2022-09-18T02:17:20.923Z,99.99
2022-09-18T02:18:21.163Z,99.99
2022-09-18T02:19:21.153Z,99.99
2022-09-18T02:20:21.134Z,99.99
2022-09-18T02:21:21.125Z,99.99
2022-09-18T02:22:21.232Z,99.99
2022-09-18T02:23:20.838Z,99.99
2022-09-18T02:24:20.822Z,99.99
2022-09-18T02:25:21.063Z,99.99
2022-09-18T02:26:21.049Z,99.99
2022-09-18T02:27:21.029Z,99.99
2022-09-18T02:28:20.761Z,99.99
2022-09-18T02:29:21.117Z,99.99
2022-09-18T02:30:20.732Z,99.99
2022-09-18T02:31:21.078Z,99.99
2022-09-18T02:32:20.701Z,99.99
2022-09-18T02:33:20.937Z,99.99
2022-09-18T02:34:20.932Z,99.99
2022-09-18T02:35:20.915Z,99.99
2022-09-18T02:36:20.894Z,99.99
2022-09-18T02:37:20.626Z,99.99
2022-09-18T02:38:20.986Z,99.99
2022-09-18T02:39:20.858Z,99.99
2022-09-18T02:40:20.984Z,99.99
2022-09-18T02:41:20.819Z,99.99
2022-09-18T02:42:20.809Z,99.99
2022-09-18T02:43:20.798Z,99.99
2022-09-18T02:44:20.785Z,99.99
2022-09-18T02:45:20.879Z,99.99
2022-09-18T02:46:20.850Z,99.99
2022-09-18T02:47:20.473Z,99.99
2022-09-18T02:48:20.721Z,99.99
2022-09-18T02:49:20.699Z,99.99
2022-09-18T02:50:20.432Z,99.99
2022-09-18T02:51:20.418Z,99.99
2022-09-18T02:52:20.406Z,99.99
2022-09-18T02:53:20.388Z,99.99
2022-09-18T02:54:20.564Z,99.99
2022-09-18T02:55:20.359Z,99.99
2022-09-18T02:56:20.350Z,99.99
2022-09-18T02:57:20.327Z,99.99
2022-09-18T02:58:20.317Z,99.99
2022-09-18T02:59:20.303Z,99.99
2022-09-18T03:00:20.547Z,99.99
2022-09-18T03:01:20.779Z,99.99
2022-09-18T03:02:20.688Z,99.99
2022-09-18T03:03:20.514Z,99.99
2022-09-18T03:04:20.483Z,99.99
2022-09-18T03:05:20.485Z,99.99
2022-09-18T03:06:20.463Z,99.99
2022-09-18T03:07:20.436Z,99.99
2022-09-18T03:08:20.423Z,99.99
2022-09-18T03:09:20.166Z,99.99
2022-09-18T03:10:20.507Z,99.99
2022-09-18T03:11:20.126Z,99.99
2022-09-18T03:12:20.108Z,99.99
2022-09-18T03:13:20.353Z,99.99
2022-09-18T03:14:20.336Z,99.99
2022-09-18T03:15:20.062Z,99.99
2022-09-18T03:16:20.557Z,99.99
2022-09-18T03:17:20.417Z,99.99
2022-09-18T03:18:20.020Z,99.99
2022-09-18T03:19:20.269Z,99.99
2022-09-18T03:20:20.251Z,99.99
2022-09-18T03:21:19.976Z,99.99
2022-09-18T03:22:20.216Z,99.99
2022-09-18T03:23:20.206Z,99.99
2022-09-18T03:24:20.190Z,99.99
2022-09-18T03:25:20.176Z,99.99
2022-09-18T03:26:20.088Z,99.99
2022-09-18T03:27:20.144Z,99.99
2022-09-18T03:28:19.877Z,99.99
2022-09-18T03:29:19.861Z,99.99
2022-09-18T03:30:20.099Z,99.99
2022-09-18T03:31:19.986Z,99.99
2022-09-18T03:32:20.070Z,99.99
2022-09-18T03:49:30.173Z,99.99
2022-09-18T03:50:29.908Z,99.99
2022-09-18T03:51:29.902Z,99.99
2022-09-18T03:52:29.874Z,99.99
2022-09-18T03:53:29.871Z,99.99
2022-09-18T03:54:29.587Z,99.99
2022-09-18T03:55:29.577Z,99.99
2022-09-18T03:56:29.814Z,99.99
2022-09-18T03:57:29.794Z,99.99
2022-09-18T03:58:29.774Z,99.99
2022-09-18T03:59:29.911Z,99.99
2022-09-18T04:00:29.742Z,99.99
2022-09-18T04:01:29.881Z,99.99
2022-09-18T04:02:29.786Z,99.99
2022-09-18T04:03:29.505Z,99.99
2022-09-18T04:04:29.686Z,99.99
2022-09-18T04:05:29.912Z,99.99
2022-09-18T04:06:29.393Z,99.99
2022-09-18T04:07:29.636Z,99.99
2022-09-18T04:08:29.624Z,99.99
2022-09-18T04:09:29.353Z,99.99
2022-09-18T04:10:29.584Z,99.99
2022-09-18T04:11:29.571Z,99.99
2022-09-18T04:12:29.576Z,99.99
2022-09-18T04:13:29.557Z,99.99
2022-09-18T04:14:32.673Z,99.99
2022-09-18T04:15:29.517Z,99.99
2022-09-18T04:16:29.671Z,99.99
2022-09-18T04:17:29.479Z,99.99
2022-09-18T04:18:29.463Z,99.99
2022-09-18T04:19:29.457Z,99.99
2022-09-18T04:20:29.182Z,99.99
2022-09-18T04:21:29.673Z,99.99
2022-09-18T04:22:29.146Z,99.99
2022-09-18T04:23:29.396Z,99.99
2022-09-18T04:24:29.116Z,99.99
2022-09-18T04:25:29.358Z,99.99
2022-09-18T04:26:29.346Z,99.99
2022-09-18T04:27:29.076Z,99.99
2022-09-18T04:28:29.058Z,99.99
2022-09-18T04:29:29.296Z,99.99
2022-09-18T04:30:29.291Z,99.99
2022-09-18T04:31:29.372Z,99.99
2022-09-18T04:32:29.248Z,99.99
2022-09-18T04:33:28.982Z,99.99
2022-09-18T04:34:29.222Z,99.99
2022-09-18T04:35:29.208Z,99.99
2022-09-18T04:36:28.937Z,99.99
2022-09-18T04:37:29.430Z,99.99
2022-09-18T04:38:29.164Z,99.99
2022-09-18T04:39:28.897Z,99.99
2022-09-18T04:40:29.080Z,99.99
2022-09-18T04:41:29.120Z,99.99
2022-09-18T04:42:29.102Z,99.99
2022-09-18T04:43:29.084Z,99.99
2022-09-18T04:44:28.820Z,99.99
2022-09-18T04:45:29.056Z,99.99
2022-09-18T04:46:28.913Z,99.99
2022-09-18T04:47:28.817Z,99.99
2022-09-18T04:48:28.761Z,99.99
2022-09-18T04:49:28.995Z,99.99
2022-09-18T04:50:28.730Z,99.99
2022-09-18T04:51:28.712Z,99.99
2022-09-18T04:52:28.703Z,99.99
2022-09-18T04:53:29.182Z,99.99
2022-09-18T04:54:28.929Z,99.99
2022-09-18T04:55:28.909Z,99.99
2022-09-18T04:56:28.897Z,99.99
2022-09-18T04:57:28.876Z,99.99
2022-09-18T04:58:28.610Z,99.99
2022-09-18T04:59:28.844Z,99.99
2022-09-18T05:00:28.702Z,99.99
2022-09-18T05:01:28.840Z,99.99
2022-09-18T05:02:28.769Z,99.99
2022-09-18T05:03:28.532Z,99.99
2022-09-18T05:04:28.519Z,99.99
2022-09-18T05:05:28.783Z,99.99
2022-09-18T05:06:28.746Z,99.99
2022-09-18T05:07:28.729Z,99.99
2022-09-18T05:08:28.716Z,99.99
2022-09-18T05:09:28.945Z,99.99
2022-09-18T05:10:28.685Z,99.99
2022-09-18T05:11:28.553Z,99.99
2022-09-18T05:12:28.407Z,99.99
2022-09-18T05:13:28.640Z,99.99
2022-09-18T05:14:28.369Z,99.99
2022-09-18T05:15:28.609Z,99.99
2022-09-18T05:16:28.521Z,99.99
2022-09-18T05:17:28.578Z,99.99
2022-09-18T05:18:28.311Z,99.99
2022-09-18T05:19:28.553Z,99.99
2022-09-18T05:20:28.546Z,99.99
2022-09-18T05:21:28.522Z,99.99
2022-09-18T05:22:28.507Z,99.99
2022-09-18T05:23:28.496Z,99.99
2022-09-18T05:24:28.225Z,99.99
2022-09-18T05:25:28.711Z,99.99
2022-09-18T05:26:28.449Z,99.99
2022-09-18T05:27:29.265Z,99.99
2022-09-18T05:28:28.424Z,99.99
2022-09-18T05:29:28.151Z,99.99
2022-09-18T05:30:28.136Z,99.99
2022-09-18T05:31:28.493Z,99.99
2022-09-18T05:32:28.102Z,99.99
2022-09-18T05:33:28.347Z,99.99
2022-09-18T05:34:28.078Z,99.99
2022-09-18T05:35:28.057Z,99.99
2022-09-18T05:36:28.304Z,99.99
2022-09-18T05:37:28.286Z,99.99
2022-09-18T05:38:28.017Z,99.99
2022-09-18T05:39:28.260Z,99.99
2022-09-18T05:40:28.414Z,99.99
2022-09-18T05:41:28.478Z,99.99
2022-09-18T05:42:27.956Z,99.99
2022-09-18T05:43:28.198Z,99.99
2022-09-18T05:44:28.177Z,99.99
2022-09-18T05:45:27.908Z,99.99
2022-09-18T05:46:28.263Z,99.99
2022-09-18T05:47:27.890Z,99.99
2022-09-18T05:48:27.869Z,99.99
2022-09-18T05:49:28.115Z,99.99
2022-09-18T05:50:27.840Z,99.99
2022-09-18T05:51:28.081Z,99.99
2022-09-18T05:52:28.062Z,99.99
2022-09-18T05:53:28.059Z,99.99
2022-09-18T05:54:27.782Z,99.99
2022-09-18T05:55:31.531Z,99.99
2022-09-18T05:56:28.063Z,99.99
2022-09-18T05:57:28.234Z,99.99
2022-09-18T05:58:27.982Z,99.99
2022-09-18T05:59:27.708Z,99.99
2022-09-18T06:00:27.956Z,99.99
2022-09-18T06:01:27.785Z,99.99
2022-09-18T06:02:27.984Z,99.99
2022-09-18T06:03:28.055Z,99.99
2022-09-18T06:04:27.888Z,99.99
2022-09-18T06:05:27.624Z,99.99
2022-09-18T06:06:27.881Z,99.99
2022-09-18T06:07:27.589Z,99.99
2022-09-18T06:08:27.586Z,99.99
2022-09-18T06:09:27.572Z,99.99
2022-09-18T06:10:27.861Z,99.99
2022-09-18T06:11:27.541Z,99.99
2022-09-18T06:12:27.518Z,99.99
2022-09-18T06:13:28.012Z,99.99
2022-09-18T06:14:27.750Z,99.99
2022-09-18T06:15:27.730Z,99.99
2022-09-18T06:16:27.617Z,99.99
2022-09-18T06:17:27.448Z,99.99
2022-09-18T06:18:27.441Z,99.99
2022-09-18T06:19:27.419Z,99.99
2022-09-18T06:20:27.747Z,99.99
2022-09-18T06:21:27.652Z,99.99
2022-09-18T06:22:27.634Z,99.99
2022-09-18T06:23:27.618Z,99.99
2022-09-18T06:24:27.608Z,99.99
2022-09-18T06:25:27.328Z,99.99
2022-09-18T06:26:27.320Z,99.99
2022-09-18T06:27:27.303Z,99.99
2022-09-18T06:28:27.291Z,99.99
2022-09-18T06:29:27.768Z,99.99
2022-09-18T06:30:27.541Z,99.99
2022-09-18T06:31:27.386Z,99.99
2022-09-18T06:32:27.490Z,99.99
2022-09-18T06:33:27.470Z,99.99
2022-09-18T06:34:27.203Z,99.99
2022-09-18T06:35:27.449Z,99.99
2022-09-18T06:36:27.176Z,99.99
2022-09-18T06:37:27.156Z,99.99
2022-09-18T06:38:27.402Z,99.99
2022-09-18T06:39:27.133Z,99.99
2022-09-18T06:40:27.599Z,99.99
2022-09-18T06:41:27.354Z,99.99
2022-09-18T06:42:27.092Z,99.99
2022-09-18T06:43:27.333Z,99.99
2022-09-18T06:44:27.322Z,99.99
2022-09-18T06:45:27.544Z,99.99
2022-09-18T06:46:27.415Z,99.99
2022-09-18T06:47:27.019Z,99.99
2022-09-18T06:48:27.261Z,99.99
2022-09-18T06:49:26.990Z,99.99
2022-09-18T06:50:27.060Z,99.99
2022-09-18T06:51:27.215Z,99.99
2022-09-18T06:52:26.948Z,99.99
2022-09-18T06:53:27.187Z,99.99
2022-09-18T06:54:26.924Z,99.99
2022-09-18T06:55:26.906Z,99.99
2022-09-18T06:56:27.150Z,99.99
2022-09-18T06:57:27.133Z,99.99
2022-09-18T06:58:26.864Z,99.99
2022-09-18T06:59:26.901Z,99.99
2022-09-18T07:00:27.094Z,99.99
2022-09-18T07:01:27.464Z,99.99
2022-09-18T07:02:26.932Z,99.99
2022-09-18T07:03:26.801Z,99.99
2022-09-18T07:04:27.041Z,99.99
2022-09-18T07:05:27.026Z,99.99
2022-09-18T07:06:27.011Z,99.99
2022-09-18T07:07:26.745Z,99.99
2022-09-18T07:08:26.734Z,99.99
2022-09-18T07:09:26.966Z,99.99
2022-09-18T07:10:26.812Z,99.99
2022-09-18T07:11:26.939Z,99.99
2022-09-18T07:12:26.928Z,99.99
2022-09-18T07:13:26.913Z,99.99
2022-09-18T07:14:26.644Z,99.99
2022-09-18T07:15:26.900Z,99.99
2022-09-18T07:16:26.807Z,99.99
2022-09-18T07:17:29.173Z,99.99
2022-09-18T07:18:26.845Z,99.99
2022-09-18T07:19:26.833Z,99.99
2022-09-18T07:20:26.661Z,99.99
2022-09-18T07:21:26.549Z,99.99
2022-09-18T07:22:26.537Z,99.99
2022-09-18T07:23:26.521Z,99.99
2022-09-18T07:24:26.763Z,99.99
2022-09-18T07:25:26.753Z,99.99
2022-09-18T07:26:26.483Z,99.99
2022-09-18T07:27:26.728Z,99.99
2022-09-18T07:28:26.707Z,99.99
2022-09-18T07:29:26.697Z,99.99
2022-09-18T07:30:26.530Z,99.99
2022-09-18T07:31:26.922Z,99.99
2022-09-18T07:32:26.655Z,99.99
2022-09-18T07:33:26.892Z,99.99
2022-09-18T07:34:26.379Z,99.99
2022-09-18T07:35:26.369Z,99.99
2022-09-18T07:36:26.348Z,99.99
2022-09-18T07:37:26.339Z,99.99
2022-09-18T07:38:26.582Z,99.99
2022-09-18T07:39:26.572Z,99.99
2022-09-18T07:40:26.527Z,99.99
2022-09-18T07:41:26.288Z,99.99
2022-09-18T07:42:26.268Z,99.6
2022-09-18T07:43:26.551Z,96.7
2022-09-18T07:44:26.499Z,96.31
2022-09-18T07:45:26.493Z,95.65
2022-09-18T07:46:26.615Z,94.7
2022-09-18T07:47:26.463Z,93.84
2022-09-18T07:48:26.444Z,93.94
2022-09-18T07:49:26.686Z,91.94
2022-09-18T07:50:26.428Z,92.41
2022-09-18T07:51:28.849Z,92.6
2022-09-18T07:52:26.395Z,91.84
2022-09-18T07:53:26.384Z,92.22
2022-09-18T07:54:26.376Z,91.08
2022-09-18T07:55:26.101Z,90.99
2022-09-18T07:56:26.341Z,89.65
2022-09-18T07:57:26.082Z,90.51
2022-09-18T07:58:26.066Z,91.08
2022-09-18T07:59:26.054Z,90.8
2022-09-18T08:00:26.037Z,90.42
2022-09-18T08:01:26.208Z,90.27
2022-09-18T08:02:26.264Z,91.22
2022-09-18T08:03:26.006Z,91.89
2022-09-18T08:04:26.245Z,91.89
2022-09-18T08:05:26.477Z,89.98
2022-09-18T08:06:25.967Z,89.03
2022-09-18T08:07:25.963Z,88.18
2022-09-18T08:08:26.193Z,86.94
2022-09-18T08:09:26.180Z,86.65
2022-09-18T08:10:25.914Z,87.13
2022-09-18T08:11:26.162Z,88.08
2022-09-18T08:12:25.901Z,89.22
2022-09-18T08:13:26.135Z,89.03
2022-09-18T08:14:31.164Z,89.03
2022-09-18T08:15:25.850Z,88.79
2022-09-18T08:16:26.016Z,87.07
2022-09-18T08:17:26.079Z,84.88
2022-09-18T08:18:25.818Z,83.07
2022-09-18T08:19:26.059Z,83.26
2022-09-18T08:20:25.798Z,83.65
2022-09-18T08:21:26.269Z,83.36
2022-09-18T08:22:26.031Z,83.17
2022-09-18T08:23:26.011Z,82.6
2022-09-18T08:24:25.750Z,82.98
2022-09-18T08:25:25.735Z,83.36
2022-09-18T08:26:25.976Z,84.5
2022-09-18T08:27:25.707Z,84.03
2022-09-18T08:28:25.698Z,82.07
2022-09-18T08:29:25.936Z,80.07
2022-09-18T08:30:25.674Z,79.97
2022-09-18T08:31:25.816Z,79.4
2022-09-18T08:32:25.908Z,79.49
2022-09-18T08:33:25.890Z,80.35
2022-09-18T08:34:25.678Z,80.64
2022-09-18T08:35:25.877Z,80.83
2022-09-18T08:36:25.605Z,81.36
2022-09-18T08:37:26.122Z,80.31
2022-09-18T08:38:25.854Z,80.22
2022-09-18T08:39:25.573Z,81.17
2022-09-18T08:40:25.922Z,80.98
2022-09-18T08:41:25.546Z,81.07
2022-09-18T08:42:28.574Z,80.5
2022-09-18T08:43:25.778Z,80.02
2022-09-18T08:44:25.774Z,79.64
2022-09-18T08:45:25.497Z,79.83
2022-09-18T08:46:25.859Z,79.55
2022-09-18T08:47:25.734Z,80.02
2022-09-18T08:48:25.465Z,81.07
2022-09-18T08:49:25.717Z,80.79
2022-09-18T08:50:25.441Z,81.4
2022-09-18T08:51:25.692Z,80.73
2022-09-18T08:52:25.427Z,80.83
2022-09-18T08:53:25.936Z,82.07
2022-09-18T08:54:25.398Z,81.12
2022-09-18T08:55:25.644Z,80.5
2022-09-18T08:56:25.378Z,81.55
2022-09-18T08:57:25.624Z,81.07
2022-09-18T08:58:25.348Z,81.46
2022-09-18T08:59:25.595Z,81.74
2022-09-18T09:00:25.340Z,81.97
2022-09-18T09:01:25.694Z,81.49
2022-09-18T09:02:27.875Z,80.5
2022-09-18T09:03:25.290Z,79.97
2022-09-18T09:04:25.283Z,80.35
2022-09-18T09:05:25.273Z,78.64
2022-09-18T09:06:25.509Z,79.07
2022-09-18T09:07:25.499Z,79.83
2022-09-18T09:08:25.489Z,79.49
2022-09-18T09:09:25.721Z,79.59
2022-09-18T09:10:25.467Z,78.73
2022-09-18T09:11:25.204Z,78.64
2022-09-18T09:12:25.447Z,78.54
2022-09-18T09:13:25.182Z,77.59
2022-09-18T09:14:57.380Z,77.69
2022-09-18T09:15:25.424Z,77.97
2022-09-18T09:16:25.527Z,78.35
2022-09-18T09:17:25.391Z,78.69
2022-09-18T09:18:25.125Z,79.17
2022-09-18T09:19:25.377Z,80.22
2022-09-18T09:20:25.107Z,79.97
2022-09-18T09:21:25.087Z,79.68
2022-09-18T09:22:25.079Z,81.02
2022-09-18T09:23:25.329Z,80.58
2022-09-18T09:24:25.057Z,80.01
2022-09-18T09:25:25.544Z,80.11
2022-09-18T09:26:25.290Z,79.38
2022-09-18T09:27:25.022Z,78.05
2022-09-18T09:28:25.010Z,77.57
2022-09-18T09:29:25.260Z,76.42
2022-09-18T09:30:24.985Z,75.09
2022-09-18T09:31:25.332Z,75.62
2022-09-18T09:32:24.973Z,76.86
2022-09-18T09:33:25.210Z,76.62
2022-09-18T09:34:25.197Z,76.04
2022-09-18T09:35:25.191Z,76.14
2022-09-18T09:36:24.923Z,76.33
2022-09-18T09:37:24.920Z,75.85
2022-09-18T09:38:24.906Z,75.47
2022-09-18T09:39:25.148Z,75.47
2022-09-18T09:40:25.253Z,76.42
2022-09-18T09:41:25.373Z,76.52
2022-09-18T09:42:24.867Z,77.38
2022-09-18T09:43:24.849Z,78.1
2022-09-18T09:44:24.843Z,79.82
2022-09-18T09:45:24.832Z,79.53
2022-09-18T09:46:25.147Z,80.3
2022-09-18T09:47:25.065Z,82.17
2022-09-18T09:48:24.797Z,83.4
2022-09-18T09:49:25.050Z,84.26
2022-09-18T09:50:24.779Z,85.6
2022-09-18T09:51:24.768Z,87.31
2022-09-18T09:52:24.755Z,88.79
2022-09-18T09:53:24.743Z,89.94
2022-09-18T09:54:24.734Z,90.98
2022-09-18T09:55:24.983Z,91.74
2022-09-18T09:56:24.717Z,92.79
2022-09-18T09:57:25.197Z,93.93
2022-09-18T09:58:24.693Z,95.08
2022-09-18T09:59:24.932Z,96.08
2022-09-18T10:00:24.669Z,97.13
2022-09-18T10:01:24.767Z,98.03
2022-09-18T10:02:25.114Z,99.18
2022-09-18T10:03:24.890Z,99.65
2022-09-18T10:04:25.061Z,99.84
2022-09-18T10:05:24.925Z,99.99
2022-09-18T10:06:24.606Z,99.99
2022-09-18T10:07:24.597Z,99.99
2022-09-18T10:08:24.602Z,99.99
2022-09-18T10:09:24.818Z,99.99
2022-09-18T10:10:24.555Z,99.99
2022-09-18T10:11:24.795Z,99.99
2022-09-18T10:12:24.531Z,99.99
2022-09-18T10:13:25.031Z,99.99
2022-09-18T10:14:24.515Z,99.99
2022-09-18T10:15:24.748Z,99.99
2022-09-18T10:16:24.687Z,99.99
2022-09-18T10:17:24.724Z,99.99
2022-09-18T10:18:24.716Z,99.99
2022-09-18T10:19:24.706Z,99.99
2022-09-18T10:20:24.441Z,99.99
2022-09-18T10:21:24.427Z,99.99
2022-09-18T10:22:24.425Z,99.99
2022-09-18T10:23:30.711Z,99.99
2022-09-18T10:24:24.647Z,99.99
2022-09-18T10:25:24.636Z,99.99
2022-09-18T10:26:24.622Z,99.99
2022-09-18T10:27:24.357Z,99.99
2022-09-18T10:28:24.599Z,99.99
2022-09-18T10:29:24.837Z,99.99
2022-09-18T10:30:24.584Z,99.99
2022-09-18T10:31:24.695Z,99.99
2022-09-18T10:32:24.551Z,99.99
2022-09-18T10:33:24.284Z,99.99
2022-09-18T10:34:24.276Z,99.99
2022-09-18T10:35:24.258Z,99.99
2022-09-18T10:36:24.515Z,99.99
2022-09-18T10:37:24.237Z,99.99
2022-09-18T10:38:24.487Z,99.99
2022-09-18T10:39:26.908Z,99.99
2022-09-18T10:40:24.617Z,99.99
2022-09-18T10:41:24.455Z,99.99
2022-09-18T10:42:24.175Z,99.99
2022-09-18T10:43:24.422Z,99.99
2022-09-18T10:44:24.154Z,99.99
2022-09-18T10:45:24.645Z,99.99
2022-09-18T10:46:24.273Z,99.99
2022-09-18T10:47:24.379Z,99.99
2022-09-18T10:48:24.364Z,99.99
2022-09-18T10:49:24.093Z,99.99
2022-09-18T10:50:24.335Z,99.99
2022-09-18T10:51:24.327Z,99.99
2022-09-18T10:52:24.058Z,99.99
2022-09-18T10:53:24.053Z,99.99
2022-09-18T10:54:24.296Z,99.99
2022-09-18T10:55:24.276Z,99.99
2022-09-18T10:56:24.012Z,99.99
2022-09-18T10:57:24.256Z,99.99
2022-09-18T10:58:24.246Z,99.99
2022-09-18T10:59:24.335Z,99.99
2022-09-18T11:00:24.013Z,99.99
2022-09-18T11:01:24.626Z,99.99
2022-09-18T11:02:24.378Z,99.99
2022-09-18T11:03:24.185Z,99.99
2022-09-18T11:04:24.175Z,99.99
2022-09-18T11:05:24.166Z,99.99
2022-09-18T11:06:24.013Z,99.99
2022-09-18T11:07:28.220Z,99.99
2022-09-18T11:08:23.865Z,99.99
2022-09-18T11:09:23.865Z,99.99
2022-09-18T11:10:24.094Z,99.99
2022-09-18T11:11:23.830Z,99.99
2022-09-18T11:12:23.830Z,99.99
2022-09-18T11:13:23.808Z,99.99
2022-09-18T11:14:23.794Z,99.99
2022-09-18T11:15:23.786Z,99.99
2022-09-18T11:16:24.197Z,99.99
2022-09-18T11:17:24.267Z,99.99
2022-09-18T11:18:24.012Z,99.99
2022-09-18T11:19:23.999Z,99.99
2022-09-18T11:20:23.732Z,99.99
2022-09-18T11:21:23.986Z,99.99
2022-09-18T11:22:23.707Z,99.99
2022-09-18T11:23:23.954Z,99.99
2022-09-18T11:24:23.687Z,99.99
2022-09-18T11:25:23.943Z,99.99
2022-09-18T11:26:23.929Z,99.99
2022-09-18T11:27:23.921Z,99.99
2022-09-18T11:28:23.914Z,99.99
2022-09-18T11:29:23.901Z,99.99
2022-09-18T11:30:23.881Z,99.99
2022-09-18T11:31:23.982Z,99.99
2022-09-18T11:32:23.602Z,99.99
2022-09-18T11:33:24.103Z,99.99
2022-09-18T11:34:23.583Z,99.99
2022-09-18T11:35:23.822Z,99.99
2022-09-18T11:36:23.558Z,99.99
2022-09-18T11:37:23.555Z,99.99
2022-09-18T11:38:23.799Z,99.99
2022-09-18T11:39:26.941Z,99.99
2022-09-18T11:40:23.954Z,99.99
2022-09-18T11:41:23.764Z,99.99
2022-09-18T11:42:23.756Z,99.99
2022-09-18T11:43:23.743Z,99.99
2022-09-18T11:44:23.734Z,99.99
2022-09-18T11:45:23.469Z,99.99
2022-09-18T11:46:23.577Z,99.85
2022-09-18T11:47:23.749Z,99.99
2022-09-18T11:48:23.690Z,98.32
2022-09-18T11:49:23.921Z,99.08
2022-09-18T11:50:23.671Z,98.8
2022-09-18T11:51:23.661Z,96.41
2022-09-18T11:52:23.488Z,95.75
2022-09-18T11:53:23.638Z,95.94
2022-09-18T11:54:23.628Z,95.08
2022-09-18T11:55:23.366Z,97.17
2022-09-18T11:56:23.352Z,96.8
2022-09-18T11:57:23.601Z,96.8
2022-09-18T11:58:23.590Z,96.51
2022-09-18T11:59:23.577Z,96.22
2022-09-18T12:00:23.570Z,96.7
2022-09-18T12:01:23.560Z,97.37
2022-09-18T12:02:23.652Z,96.03
2022-09-18T12:03:23.520Z,95.37
2022-09-18T12:04:23.525Z,95.94
2022-09-18T12:05:23.758Z,96.32
2022-09-18T12:06:23.254Z,96.22
2022-09-18T12:07:41.087Z,95.89
2022-09-18T12:08:22.125Z,95.03
2022-09-18T12:09:22.114Z,95.51
2022-09-18T12:10:21.852Z,95.98
2022-09-18T12:11:21.837Z,95.7
2022-09-18T12:12:22.080Z,95.89
2022-09-18T12:13:22.067Z,96.84
2022-09-18T12:14:21.802Z,98.08
2022-09-18T12:15:21.793Z,99.04
2022-09-18T12:16:21.895Z,99.22
2022-09-18T12:17:22.020Z,99.99
2022-09-18T12:18:21.773Z,99.99
2022-09-18T12:19:22.004Z,99.99
2022-09-18T12:20:21.987Z,99.99
2022-09-18T12:21:22.226Z,99.99
2022-09-18T12:22:21.707Z,99.99
2022-09-18T12:23:21.954Z,99.99
2022-09-18T12:24:21.936Z,99.99
2022-09-18T12:25:21.931Z,99.99
2022-09-18T12:26:21.662Z,99.99
2022-09-18T12:27:23.376Z,99.99
2022-09-18T12:28:21.895Z,99.99
2022-09-18T12:29:21.628Z,99.99
2022-09-18T12:30:21.865Z,99.99
2022-09-18T12:31:22.030Z,99.99
2022-09-18T12:32:21.845Z,99.99
2022-09-18T12:33:21.836Z,99.99
2022-09-18T12:34:21.821Z,99.75
2022-09-18T12:35:21.813Z,99.46
2022-09-18T12:36:21.545Z,99.75
2022-09-18T12:37:22.032Z,99.27
2022-09-18T12:38:21.777Z,99.27
2022-09-18T12:39:22.442Z,97.75
2022-09-18T12:40:22.603Z,97.56
2022-09-18T12:41:22.161Z,98.22
2022-09-18T12:42:22.147Z,98.13
2022-09-18T12:43:22.139Z,97.56
2022-09-18T12:44:22.130Z,95.79
2022-09-18T12:45:22.131Z,93.93
2022-09-18T12:46:22.356Z,93.79
2022-09-18T12:47:22.100Z,94.07
2022-09-18T12:48:22.097Z,94.22
2022-09-18T12:49:22.325Z,94.32
2022-09-18T12:50:22.323Z,94.12
2022-09-18T12:51:22.306Z,94.7
2022-09-18T12:52:23.877Z,93.74
2022-09-18T12:53:22.524Z,93.27
2022-09-18T12:54:22.274Z,92.79
2022-09-18T12:55:22.264Z,92.88
2022-09-18T12:56:21.990Z,93.22
2022-09-18T12:57:22.237Z,93.88
2022-09-18T12:58:21.969Z,94.84
2022-09-18T12:59:21.963Z,95.03
2022-09-18T13:00:22.207Z,97.41
2022-09-18T13:01:22.115Z,98.46
2022-09-18T13:02:21.922Z,99.99
2022-09-18T13:03:22.265Z,99.99
2022-09-18T13:04:21.897Z,99.99
2022-09-18T13:05:21.889Z,99.99
2022-09-18T13:06:21.874Z,99.99
2022-09-18T13:07:21.868Z,99.99
2022-09-18T13:08:21.853Z,99.99
2022-09-18T13:09:27.657Z,99.99